Time;durP1;ratioP1;P1;durP2;ratioP2;P2;SDS_P1;SDS_P2;PMS_P1;PMS_P2;Temp;Humidity;BMP_temperature;BMP_pressure;BME280_temperature;BME280_humidity;BME280_pressure;Samples;Min_cycle;Max_cycle;Signal;HPM_P1;HPM_P2
2023/03/26 00:01:00;;;;;;;5.22;1.50;;;7.30;99.90;;;;;;5079122;28;20058;-80
2023/03/26 00:03:26;;;;;;;5.47;1.60;;;7.30;99.90;;;;;;5079089;28;20059;-82
2023/03/26 00:06:04;;;;;;;6.65;1.73;;;7.30;99.90;;;;;;5078813;28;20040;-80
2023/03/26 00:08:30;;;;;;;6.03;1.55;;;7.30;99.90;;;;;;5078776;28;20056;-83
2023/03/26 00:10:56;;;;;;;3.72;1.30;;;7.30;99.90;;;;;;5078011;28;20483;-80
2023/03/26 00:13:22;;;;;;;9.88;2.15;;;7.20;99.90;;;;;;5079420;28;20052;-79
2023/03/26 00:15:47;;;;;;;7.10;2.03;;;7.20;99.90;;;;;;5079490;28;20377;-80
2023/03/26 00:18:13;;;;;;;5.72;1.63;;;7.10;99.90;;;;;;5078541;28;20044;-79
2023/03/26 00:20:40;;;;;;;8.52;2.80;;;7.10;99.90;;;;;;5078549;28;20052;-78
2023/03/26 00:23:06;;;;;;;4.90;1.20;;;7.10;99.90;;;;;;5079209;28;20462;-78
2023/03/26 00:25:33;;;;;;;6.18;1.60;;;7.00;99.90;;;;;;5096380;28;20090;-79
2023/03/26 00:27:59;;;;;;;4.78;1.40;;;7.10;99.90;;;;;;5061723;28;20166;-79
2023/03/26 00:30:26;;;;;;;4.97;1.70;;;7.10;99.90;;;;;;5078631;28;20055;-79
2023/03/26 00:32:52;;;;;;;3.58;1.52;;;7.10;99.90;;;;;;5079055;28;20048;-81
2023/03/26 00:35:17;;;;;;;3.83;1.33;;;7.10;99.90;;;;;;5079094;28;20464;-80
2023/03/26 00:37:44;;;;;;;6.85;1.60;;;7.10;99.90;;;;;;5062231;28;20083;-81
2023/03/26 00:40:11;;;;;;;7.47;2.40;;;7.20;99.90;;;;;;5078185;28;20048;-79
2023/03/26 00:42:37;;;;;;;6.20;1.60;;;7.20;99.90;;;;;;5078326;28;20054;-79
2023/03/26 00:45:06;;;;;;;4.63;1.65;;;7.20;99.90;;;;;;5078305;28;20044;-80
2023/03/26 00:47:32;;;;;;;7.25;1.70;;;7.20;99.90;;;;;;5078054;28;20367;-80
2023/03/26 00:49:58;;;;;;;4.07;1.58;;;7.20;99.90;;;;;;5077978;28;20497;-81
2023/03/26 00:52:27;;;;;;;4.90;1.40;;;7.20;99.90;;;;;;5062108;28;20052;-81
2023/03/26 00:54:53;;;;;;;4.85;1.55;;;7.20;99.90;;;;;;5078741;28;20422;-79
2023/03/26 00:57:20;;;;;;;4.60;1.40;;;7.20;99.90;;;;;;5061449;28;20094;-80
2023/03/26 00:59:49;;;;;;;7.32;1.50;;;7.10;99.90;;;;;;5077559;28;20092;-79
2023/03/26 01:02:17;;;;;;;7.15;1.67;;;7.10;99.90;;;;;;5078067;28;20092;-82
2023/03/26 01:04:46;;;;;;;6.35;1.40;;;7.10;99.90;;;;;;5077354;28;20102;-81
2023/03/26 01:07:15;;;;;;;3.38;1.83;;;7.00;99.90;;;;;;5077716;28;20066;-82
2023/03/26 01:09:49;;;;;;;3.72;1.88;;;7.00;99.90;;;;;;5077941;28;20063;-80
2023/03/26 01:12:21;;;;;;;6.72;1.88;;;6.90;99.90;;;;;;5077237;28;20146;-80
2023/03/26 01:14:49;;;;;;;2.95;1.90;;;6.90;99.90;;;;;;5095571;28;20050;-79
2023/03/26 01:17:16;;;;;;;5.90;1.50;;;6.80;99.90;;;;;;5077489;28;20103;-81
2023/03/26 01:20:06;;;;;;;4.40;1.63;;;6.80;99.90;;;;;;5078039;28;20052;-82
2023/03/26 01:22:35;;;;;;;7.47;1.50;;;6.70;99.90;;;;;;5078317;28;20384;-79
2023/03/26 01:25:02;;;;;;;7.53;1.50;;;6.70;99.90;;;;;;5095800;28;20104;-78
2023/03/26 01:27:41;;;;;;;4.28;1.40;;;6.70;99.90;;;;;;5077381;28;20382;-78
2023/03/26 01:30:48;;;;;;;3.55;1.80;;;6.60;99.90;;;;;;5078204;28;20075;-78
2023/03/26 01:33:20;;;;;;;4.22;1.70;;;6.60;99.90;;;;;;5073432;28;20069;-79
2023/03/26 01:35:57;;;;;;;6.18;1.88;;;6.60;99.90;;;;;;5077472;28;20400;-80
2023/03/26 01:38:36;;;;;;;6.57;1.77;;;6.60;99.90;;;;;;5060129;28;20047;-80
2023/03/26 01:41:15;;;;;;;4.95;1.35;;;6.60;99.90;;;;;;5076967;28;20481;-80
2023/03/26 01:43:53;;;;;;;5.25;1.50;;;6.50;99.90;;;;;;5077833;28;20529;-80
2023/03/26 01:46:21;;;;;;;6.85;2.30;;;6.40;99.90;;;;;;5077777;28;20098;-82
2023/03/26 01:48:47;;;;;;;6.05;1.83;;;6.40;99.90;;;;;;5077644;28;20181;-78
2023/03/26 01:51:27;;;;;;;4.88;1.73;;;6.40;99.90;;;;;;5077693;28;20052;-80
2023/03/26 01:53:55;;;;;;;7.35;1.48;;;6.30;99.90;;;;;;5077602;28;20074;-79
2023/03/26 01:56:28;;;;;;;4.50;1.40;;;6.30;99.90;;;;;;5077501;28;20044;-78
2023/03/26 01:59:12;;;;;;;5.88;1.67;;;6.30;99.90;;;;;;5059944;28;20055;-78
2023/03/26 02:01:58;;;;;;;3.15;1.48;;;6.20;99.90;;;;;;5076480;28;20083;-80
2023/03/26 02:04:41;;;;;;;4.78;1.60;;;6.20;99.90;;;;;;5077347;28;20087;-81
2023/03/26 02:07:06;;;;;;;6.78;1.70;;;6.20;99.90;;;;;;5077369;28;20058;-80
2023/03/26 02:09:40;;;;;;;7.07;1.75;;;6.10;99.90;;;;;;5060180;28;20048;-82
2023/03/26 02:12:08;;;;;;;4.47;1.95;;;6.10;99.90;;;;;;5076123;28;20130;-81
2023/03/26 02:14:35;;;;;;;5.82;1.55;;;6.10;99.90;;;;;;5093501;28;20493;-79
2023/03/26 02:17:00;;;;;;;6.07;1.40;;;6.00;99.90;;;;;;5059733;28;20404;-81
2023/03/26 02:19:26;;;;;;;6.65;2.08;;;6.10;99.90;;;;;;5094419;28;20040;-80
2023/03/26 02:21:52;;;;;;;6.45;2.17;;;6.10;99.90;;;;;;5059364;28;20476;-80
2023/03/26 02:24:18;;;;;;;4.57;1.40;;;6.00;99.90;;;;;;5076222;28;20127;-81
2023/03/26 02:26:44;;;;;;;5.18;1.52;;;6.00;99.90;;;;;;5076702;28;20040;-82
2023/03/26 02:29:19;;;;;;;4.40;1.67;;;5.90;99.90;;;;;;5093998;28;20110;-82
2023/03/26 02:31:47;;;;;;;4.22;1.63;;;6.00;99.90;;;;;;5094796;28;20045;-82
2023/03/26 02:34:13;;;;;;;6.50;1.95;;;5.90;99.90;;;;;;5076466;28;20040;-82
2023/03/26 02:36:41;;;;;;;5.85;1.80;;;6.00;99.90;;;;;;5076774;28;20105;-81
2023/03/26 02:39:09;;;;;;;6.25;2.05;;;6.00;99.90;;;;;;5075865;28;20048;-82
2023/03/26 02:41:38;;;;;;;5.57;1.67;;;6.00;99.90;;;;;;5076723;28;20052;-82
2023/03/26 02:44:04;;;;;;;6.38;1.60;;;6.00;99.90;;;;;;5059587;28;20044;-82
2023/03/26 02:46:32;;;;;;;5.55;1.48;;;6.00;99.90;;;;;;5075953;28;20399;-82
2023/03/26 02:48:58;;;;;;;9.43;1.95;;;6.00;99.90;;;;;;5075930;28;20048;-82
2023/03/26 02:51:24;;;;;;;6.22;1.45;;;6.00;99.90;;;;;;5059295;28;20369;-81
2023/03/26 02:53:52;;;;;;;3.33;1.42;;;6.00;99.90;;;;;;5058982;28;20051;-81
2023/03/26 02:56:18;;;;;;;4.82;2.30;;;5.90;99.90;;;;;;5093691;28;20373;-82
2023/03/26 02:58:45;;;;;;;5.47;1.85;;;5.90;99.90;;;;;;5093598;28;20043;-82
2023/03/26 03:01:12;;;;;;;4.00;1.30;;;5.90;99.90;;;;;;5075540;28;20048;-83
2023/03/26 03:03:37;;;;;;;3.60;1.50;;;5.90;99.90;;;;;;5076005;28;20056;-81
2023/03/26 03:06:03;;;;;;;6.07;1.80;;;5.80;99.90;;;;;;5075790;28;20040;-81
2023/03/26 03:08:29;;;;;;;2.85;1.40;;;5.70;99.90;;;;;;5059075;28;20048;-81
2023/03/26 03:10:59;;;;;;;5.38;2.35;;;5.60;99.90;;;;;;5075352;28;20550;-85
2023/03/26 03:13:25;;;;;;;2.88;1.30;;;5.50;99.90;;;;;;5093619;28;20052;-80
2023/03/26 03:15:51;;;;;;;5.50;1.60;;;5.50;99.90;;;;;;5076556;28;20459;-80
2023/03/26 03:18:17;;;;;;;3.33;1.27;;;5.40;99.90;;;;;;5076447;28;20052;-80
2023/03/26 03:20:43;;;;;;;5.07;1.63;;;5.30;99.90;;;;;;5076467;28;20051;-81
2023/03/26 03:23:10;;;;;;;4.05;1.50;;;5.30;99.90;;;;;;5094219;28;20381;-81
2023/03/26 03:25:37;;;;;;;6.45;1.67;;;5.20;99.90;;;;;;5075679;28;20052;-81
2023/03/26 03:28:03;;;;;;;3.97;1.42;;;5.20;99.90;;;;;;5078551;28;20116;-82
2023/03/26 03:30:29;;;;;;;4.18;1.50;;;5.20;99.90;;;;;;5079691;28;20047;-81
2023/03/26 03:32:57;;;;;;;7.70;2.08;;;5.20;99.90;;;;;;5080360;28;20055;-83
2023/03/26 03:35:24;;;;;;;5.72;1.50;;;5.30;99.90;;;;;;5063709;28;20051;-82
2023/03/26 03:37:50;;;;;;;4.22;1.10;;;5.30;99.90;;;;;;5080330;28;20059;-82
2023/03/26 03:40:16;;;;;;;3.75;1.45;;;5.30;99.90;;;;;;5079933;28;20111;-81
2023/03/26 03:42:41;;;;;;;4.65;1.08;;;5.30;99.90;;;;;;5062973;28;20095;-81
2023/03/26 03:45:08;;;;;;;5.47;1.60;;;5.30;99.90;;;;;;5080176;28;20070;-81
2023/03/26 03:47:33;;;;;;;4.15;1.77;;;5.20;99.90;;;;;;5079606;28;20044;-82
2023/03/26 03:49:59;;;;;;;5.85;1.73;;;5.20;99.90;;;;;;5079123;28;20147;-82
2023/03/26 03:52:26;;;;;;;3.70;1.30;;;5.30;99.90;;;;;;5079368;28;20047;-81
2023/03/26 03:54:53;;;;;;;5.07;1.60;;;5.30;99.90;;;;;;5079174;28;20113;-83
2023/03/26 03:57:20;;;;;;;4.43;1.40;;;5.30;99.90;;;;;;5079237;28;20052;-81
2023/03/26 03:59:47;;;;;;;8.35;1.83;;;5.20;99.90;;;;;;5096899;28;20040;-82
2023/03/26 04:02:12;;;;;;;5.88;1.13;;;5.20;99.90;;;;;;5079310;28;20048;-82
2023/03/26 04:04:38;;;;;;;3.60;1.30;;;5.10;99.90;;;;;;5096907;28;20044;-82
2023/03/26 04:07:05;;;;;;;5.07;1.20;;;5.10;99.90;;;;;;5078992;28;20077;-82
2023/03/26 04:09:31;;;;;;;3.88;1.33;;;5.10;99.90;;;;;;5062261;28;20048;-81
2023/03/26 04:11:56;;;;;;;4.13;1.20;;;5.10;99.90;;;;;;5078693;28;20055;-81
2023/03/26 04:14:23;;;;;;;4.50;1.50;;;5.00;99.90;;;;;;5062925;28;20055;-81
2023/03/26 04:16:48;;;;;;;4.38;1.00;;;5.00;99.90;;;;;;5097361;28;20044;-81
2023/03/26 04:19:15;;;;;;;1.70;0.90;;;4.80;99.90;;;;;;5079071;28;20131;-81
2023/03/26 04:21:44;;;;;;;2.30;0.90;;;4.70;99.90;;;;;;5078732;28;20052;-81
2023/03/26 04:24:10;;;;;;;3.33;1.13;;;4.50;99.90;;;;;;5078582;28;20052;-81
2023/03/26 04:26:36;;;;;;;7.75;2.05;;;4.30;99.90;;;;;;5079413;28;20447;-81
2023/03/26 04:29:04;;;;;;;4.28;1.13;;;4.10;99.90;;;;;;5062103;28;20161;-80
2023/03/26 04:31:30;;;;;;;2.70;1.25;;;3.90;99.90;;;;;;5096462;28;20055;-80
2023/03/26 04:34:06;;;;;;;3.05;1.30;;;3.90;99.90;;;;;;5078236;28;20079;-81
2023/03/26 04:36:33;;;;;;;3.72;1.33;;;3.90;99.90;;;;;;5078595;28;20093;-81
2023/03/26 04:39:03;;;;;;;3.45;1.70;;;3.90;99.90;;;;;;5078109;28;20052;-81
2023/03/26 04:41:31;;;;;;;3.72;1.35;;;3.90;99.90;;;;;;5078070;28;20052;-83
2023/03/26 04:43:56;;;;;;;6.32;1.60;;;4.50;99.90;;;;;;5096218;28;20428;-81
2023/03/26 04:46:23;;;;;;;5.00;1.52;;;4.10;99.90;;;;;;5096329;28;20058;-81
2023/03/26 04:48:52;;;;;;;4.22;1.35;;;4.10;99.90;;;;;;5096909;28;20043;-80
2023/03/26 04:51:23;;;;;;;5.82;1.60;;;4.20;99.90;;;;;;5078121;28;20056;-81
2023/03/26 04:53:59;;;;;;;4.18;1.25;;;4.20;99.90;;;;;;5096153;28;20048;-81
2023/03/26 04:56:39;;;;;;;4.47;1.25;;;4.20;99.90;;;;;;5078469;28;20044;-81
2023/03/26 04:59:06;;;;;;;4.22;1.30;;;4.20;99.90;;;;;;5078832;28;20086;-81
2023/03/26 05:01:36;;;;;;;4.20;1.40;;;4.30;99.90;;;;;;5078012;28;20091;-81
2023/03/26 05:04:02;;;;;;;2.80;1.27;;;4.20;99.90;;;;;;5062187;28;20067;-81
2023/03/26 05:06:29;;;;;;;3.72;1.40;;;4.40;99.90;;;;;;5077790;28;20489;-81
2023/03/26 05:08:55;;;;;;;3.70;1.30;;;4.30;99.90;;;;;;5078113;28;20048;-82
2023/03/26 05:11:20;;;;;;;3.63;1.40;;;4.30;99.90;;;;;;5077289;28;20396;-82
2023/03/26 05:13:46;;;;;;;3.85;1.67;;;4.30;99.90;;;;;;5095713;28;20502;-81
2023/03/26 05:16:12;;;;;;;5.30;2.08;;;4.60;99.90;;;;;;5096004;28;20105;-81
2023/03/26 05:18:38;;;;;;;3.15;1.52;;;4.50;99.90;;;;;;5061138;28;20048;-81
2023/03/26 05:21:04;;;;;;;4.45;1.90;;;4.60;99.90;;;;;;5095448;28;20044;-81
2023/03/26 05:23:30;;;;;;;2.88;1.90;;;4.80;99.90;;;;;;5095422;28;20048;-81
2023/03/26 05:25:56;;;;;;;4.15;1.90;;;4.90;99.90;;;;;;5077250;28;20083;-81
2023/03/26 05:28:23;;;;;;;6.30;2.05;;;5.00;99.90;;;;;;5095306;28;20079;-81
2023/03/26 05:30:51;;;;;;;5.35;2.03;;;5.10;99.90;;;;;;5076719;28;20048;-81
2023/03/26 05:33:18;;;;;;;4.25;1.90;;;5.20;99.90;;;;;;5094866;28;20044;-82
2023/03/26 05:35:44;;;;;;;4.45;2.00;;;5.30;99.90;;;;;;5077172;28;20048;-81
2023/03/26 05:38:10;;;;;;;7.07;2.00;;;5.40;99.90;;;;;;5077706;28;20454;-81
2023/03/26 05:40:36;;;;;;;7.97;2.60;;;5.40;99.90;;;;;;5076569;28;20075;-81
2023/03/26 05:43:02;;;;;;;5.57;1.92;;;5.40;99.90;;;;;;5094497;28;20071;-83
2023/03/26 05:45:28;;;;;;;6.18;1.98;;;5.50;99.90;;;;;;5076741;28;20055;-81
2023/03/26 05:47:54;;;;;;;6.53;2.65;;;5.50;99.90;;;;;;5076572;28;20044;-81
2023/03/26 05:50:20;;;;;;;4.03;2.40;;;5.50;99.90;;;;;;5094058;28;20048;-82
2023/03/26 05:52:46;;;;;;;6.90;2.25;;;5.50;99.90;;;;;;5077169;28;20089;-82
2023/03/26 05:55:12;;;;;;;7.03;1.98;;;5.50;99.90;;;;;;5076735;28;20133;-82
2023/03/26 05:57:38;;;;;;;4.75;1.95;;;5.60;99.90;;;;;;5094610;28;20048;-83
2023/03/26 06:00:07;;;;;;;4.82;2.20;;;5.60;99.90;;;;;;5077231;28;20048;-83
2023/03/26 06:02:33;;;;;;;4.88;2.28;;;5.60;99.90;;;;;;5076866;28;20393;-82
2023/03/26 06:05:00;;;;;;;4.15;1.90;;;5.70;99.90;;;;;;5094504;28;20040;-83
2023/03/26 06:07:25;;;;;;;6.65;2.10;;;5.70;99.90;;;;;;5076353;28;20048;-81
2023/03/26 06:09:52;;;;;;;7.35;3.55;;;5.70;99.90;;;;;;5076465;28;20170;-82
2023/03/26 06:12:18;;;;;;;6.47;2.22;;;5.80;99.90;;;;;;5076082;28;20099;-82
2023/03/26 06:14:44;;;;;;;5.63;2.15;;;5.80;99.90;;;;;;5076704;28;20050;-82
2023/03/26 06:17:10;;;;;;;4.18;1.75;;;5.80;99.90;;;;;;5076645;28;20059;-82
2023/03/26 06:19:36;;;;;;;5.15;2.08;;;5.90;99.90;;;;;;5076168;28;20366;-83
2023/03/26 06:22:02;;;;;;;4.57;1.85;;;5.90;99.90;;;;;;5077165;28;20417;-83
2023/03/26 06:24:28;;;;;;;6.57;1.98;;;5.90;99.90;;;;;;5059553;28;20135;-82
2023/03/26 06:26:53;;;;;;;5.28;2.30;;;6.00;99.90;;;;;;5094621;28;20040;-82
2023/03/26 06:29:19;;;;;;;7.05;2.10;;;6.00;99.90;;;;;;5059544;28;20388;-84
2023/03/26 06:31:45;;;;;;;5.00;1.80;;;6.10;99.90;;;;;;5076169;28;20051;-82
2023/03/26 06:34:11;;;;;;;7.20;2.10;;;6.10;99.90;;;;;;5076654;28;20040;-83
2023/03/26 06:36:36;;;;;;;5.25;2.00;;;6.10;99.90;;;;;;5076843;28;20059;-82
2023/03/26 06:39:02;;;;;;;5.05;1.90;;;6.10;99.90;;;;;;5059559;28;20157;-82
2023/03/26 06:41:28;;;;;;;7.70;2.65;;;6.20;99.90;;;;;;5093828;28;20043;-82
2023/03/26 06:43:54;;;;;;;4.93;2.03;;;6.20;99.90;;;;;;5094456;28;20101;-82
2023/03/26 06:46:22;;;;;;;8.85;2.25;;;6.20;99.90;;;;;;5075908;28;20138;-82
2023/03/26 06:48:48;;;;;;;12.43;2.38;;;6.30;99.90;;;;;;5075881;28;20086;-83
2023/03/26 06:51:13;;;;;;;3.55;2.10;;;6.30;99.90;;;;;;5093737;28;20101;-82
2023/03/26 06:53:39;;;;;;;6.68;2.05;;;6.30;99.90;;;;;;5059975;28;20048;-83
2023/03/26 06:56:06;;;;;;;9.27;2.40;;;6.40;99.90;;;;;;5094170;28;20426;-73
2023/03/26 06:58:31;;;;;;;5.38;2.60;;;6.40;99.90;;;;;;5093517;28;20115;-74
2023/03/26 07:00:57;;;;;;;5.80;2.45;;;6.50;99.90;;;;;;5075530;28;20051;-74
2023/03/26 07:03:23;;;;;;;3.83;2.03;;;6.60;99.90;;;;;;5076127;28;20075;-74
2023/03/26 07:05:48;;;;;;;7.95;2.38;;;6.80;99.90;;;;;;5075577;28;20052;-73
2023/03/26 07:08:14;;;;;;;5.60;2.60;;;6.70;99.90;;;;;;5075503;28;20131;-74
2023/03/26 07:10:41;;;;;;;9.85;4.32;;;6.70;99.90;;;;;;5075113;28;20527;-74
2023/03/26 07:13:07;;;;;;;8.32;2.38;;;6.80;99.90;;;;;;5059168;28;20052;-74
2023/03/26 07:15:33;;;;;;;6.95;2.30;;;6.80;99.90;;;;;;5059583;28;20043;-74
2023/03/26 07:17:58;;;;;;;8.45;2.42;;;6.90;99.90;;;;;;5058890;28;20131;-74
2023/03/26 07:20:24;;;;;;;9.48;2.30;;;7.00;99.90;;;;;;5075307;28;20044;-74
2023/03/26 07:22:50;;;;;;;10.35;2.22;;;7.00;99.90;;;;;;5058682;28;20059;-74
2023/03/26 07:25:17;;;;;;;6.72;2.25;;;7.10;99.90;;;;;;5075481;28;20046;-73
2023/03/26 07:27:55;;;;;;;8.30;2.08;;;7.20;99.90;;;;;;5093334;28;20055;-75
2023/03/26 07:30:35;;;;;;;5.40;2.58;;;7.20;99.90;;;;;;5075777;28;20132;-73
2023/03/26 07:33:14;;;;;;;6.68;2.17;;;7.30;99.90;;;;;;5076353;28;20043;-74
2023/03/26 07:35:43;;;;;;;7.57;2.30;;;7.30;99.90;;;;;;5076236;28;20091;-74
2023/03/26 07:38:35;;;;;;;7.53;2.20;;;7.30;99.90;;;;;;5093198;28;20040;-74
2023/03/26 07:41:13;;;;;;;6.22;2.03;;;7.40;99.90;;;;;;5075106;28;20048;-73
2023/03/26 07:44:06;;;;;;;8.98;2.38;;;7.40;99.90;;;;;;5075526;28;20124;-73
2023/03/26 07:46:35;;;;;;;10.55;3.92;;;7.50;99.90;;;;;;5074790;28;20040;-82
2023/03/26 07:49:03;;;;;;;8.57;2.70;;;7.50;99.90;;;;;;5042599;28;20040;-83
2023/03/26 07:51:30;;;;;;;10.38;2.28;;;7.60;99.90;;;;;;5075263;28;20047;-81
2023/03/26 07:53:58;;;;;;;9.27;2.83;;;7.60;99.90;;;;;;5075075;28;20048;-80
2023/03/26 07:56:41;;;;;;;8.02;2.33;;;7.70;99.90;;;;;;5092916;28;20386;-79
2023/03/26 07:59:07;;;;;;;6.55;2.45;;;7.70;99.90;;;;;;5075328;28;20086;-83
2023/03/26 08:01:49;;;;;;;5.72;2.25;;;7.70;99.90;;;;;;5058724;28;20099;-81
2023/03/26 08:04:17;;;;;;;7.18;2.20;;;7.70;99.90;;;;;;5075072;28;20054;-82
2023/03/26 08:06:57;;;;;;;6.22;1.83;;;7.70;99.90;;;;;;5075114;28;20134;-83
2023/03/26 08:09:30;;;;;;;8.48;1.85;;;7.60;99.90;;;;;;5074727;28;20112;-82
2023/03/26 08:12:21;;;;;;;6.43;1.75;;;7.60;99.90;;;;;;5058093;28;20067;-80
2023/03/26 08:14:53;;;;;;;8.43;2.10;;;7.70;99.90;;;;;;5065537;28;20131;-80
2023/03/26 08:17:57;;;;;;;7.13;1.73;;;7.70;99.90;;;;;;5078545;28;20055;-81
2023/03/26 08:20:43;;;;;;;9.10;2.40;;;7.70;99.90;;;;;;4995110;28;20073;-80
2023/03/26 08:23:15;;;;;;;;;;;7.70;99.90;;;;;;5075161;28;20476;-80
2023/03/26 08:26:22;;;;;;;9.07;1.88;;;7.70;99.90;;;;;;5079187;28;19920;-81
2023/03/26 08:28:57;;;;;;;5.47;1.60;;;7.70;99.90;;;;;;5078752;28;20407;-81
2023/03/26 08:31:32;;;;;;;10.07;2.65;;;7.70;99.90;;;;;;5096249;28;20133;-81
2023/03/26 08:33:58;;;;;;;6.43;1.80;;;7.80;99.90;;;;;;5079173;28;20132;-79
2023/03/26 08:36:24;;;;;;;6.60;2.00;;;7.80;99.90;;;;;;5078482;28;20067;-81
2023/03/26 08:38:51;;;;;;;10.30;1.92;;;7.90;99.90;;;;;;5078109;28;20131;-79
2023/03/26 08:41:38;;;;;;;11.57;1.90;;;7.90;99.90;;;;;;5078216;28;20414;-84
2023/03/26 08:44:46;;;;;;;9.35;1.88;;;8.00;99.90;;;;;;5061431;28;20058;-82
2023/03/26 08:47:36;;;;;;;8.45;1.67;;;8.00;99.90;;;;;;5041439;28;20075;-82
2023/03/26 08:50:33;;;;;;;8.05;1.75;;;8.00;99.90;;;;;;5061574;28;20048;-86
2023/03/26 08:53:30;;;;;;;10.63;1.90;;;8.00;99.90;;;;;;5061478;28;20044;-86
2023/03/26 08:56:25;;;;;;;5.38;1.73;;;8.10;99.90;;;;;;5061322;28;20392;-84
2023/03/26 08:59:27;;;;;;;10.15;2.20;;;8.10;99.90;;;;;;5017046;28;20052;-85
2023/03/26 09:02:08;;;;;;;10.65;2.83;;;8.10;99.90;;;;;;5077733;28;20101;-81
2023/03/26 09:05:00;;;;;;;7.00;2.00;;;8.20;99.90;;;;;;5078035;28;20052;-79
2023/03/26 09:07:31;;;;;;;6.35;2.10;;;8.30;99.90;;;;;;5059808;28;20505;-79
2023/03/26 09:10:21;;;;;;;9.35;2.25;;;8.30;99.90;;;;;;5096327;28;20408;-80
2023/03/26 09:12:59;;;;;;;6.40;1.50;;;8.40;99.90;;;;;;5061621;28;20044;-83
2023/03/26 09:15:42;;;;;;;9.05;2.83;;;8.50;99.90;;;;;;5077473;28;20483;-81
2023/03/26 09:18:38;;;;;;;12.32;2.58;;;8.60;99.90;;;;;;5077804;28;20391;-80
2023/03/26 09:21:09;;;;;;;7.90;1.80;;;8.60;99.90;;;;;;5043855;28;20067;-83
2023/03/26 09:23:56;;;;;;;13.25;3.20;;;8.60;99.90;;;;;;5060706;28;20048;-83
2023/03/26 09:26:28;;;;;;;8.25;2.45;;;8.70;99.90;;;;;;5077720;28;20052;-83
2023/03/26 09:29:16;;;;;;;11.27;2.40;;;8.80;99.90;;;;;;5061437;28;20048;-80
2023/03/26 09:32:16;;;;;;;12.55;2.75;;;8.80;99.90;;;;;;5077524;28;20048;-80
2023/03/26 09:34:45;;;;;;;7.05;1.83;;;8.80;99.90;;;;;;5094988;28;20052;-80
2023/03/26 09:37:35;;;;;;;6.60;1.60;;;8.80;99.90;;;;;;5094891;28;20084;-80
2023/03/26 09:40:17;;;;;;;9.23;1.92;;;8.80;99.90;;;;;;5094866;28;20040;-79
2023/03/26 09:43:07;;;;;;;7.38;1.75;;;8.90;99.90;;;;;;5094462;28;20089;-81
2023/03/26 09:46:02;;;;;;;6.35;2.10;;;8.90;99.90;;;;;;5094804;28;20048;-80
2023/03/26 09:48:42;;;;;;;8.00;2.17;;;8.90;99.90;;;;;;5076635;28;20090;-82
2023/03/26 09:51:22;;;;;;;10.02;2.75;;;8.90;99.90;;;;;;5076554;28;20044;-83
2023/03/26 09:54:09;;;;;;;5.07;1.85;;;9.00;99.90;;;;;;5077101;28;20123;-82
2023/03/26 09:56:56;;;;;;;7.30;1.70;;;9.10;99.90;;;;;;5060571;28;20496;-82
2023/03/26 09:59:25;;;;;;;13.85;2.97;;;9.20;99.90;;;;;;5060113;28;20071;-85
2023/03/26 10:02:04;;;;;;;8.10;1.65;;;9.30;99.90;;;;;;5076877;28;20048;-82
2023/03/26 10:05:03;;;;;;;10.82;2.40;;;9.30;99.90;;;;;;5094703;28;20121;-82
2023/03/26 10:07:35;;;;;;;5.82;2.67;;;9.30;99.90;;;;;;5094467;28;20052;-82
2023/03/26 10:10:07;;;;;;;6.22;1.80;;;9.40;99.90;;;;;;5094384;28;20048;-86
2023/03/26 10:12:38;;;;;;;8.55;1.58;;;9.40;99.90;;;;;;5076314;28;20048;-82
2023/03/26 10:15:23;;;;;;;9.52;1.70;;;9.40;99.90;;;;;;5060433;28;20048;-83
2023/03/26 10:18:13;;;;;;;6.72;1.80;;;9.40;99.90;;;;;;5076697;28;20048;-85
2023/03/26 10:20:49;;;;;;;6.80;1.85;;;9.40;99.90;;;;;;5059430;28;20040;-83
2023/03/26 10:23:46;;;;;;;8.48;2.17;;;9.30;99.90;;;;;;5059949;28;20052;-82
2023/03/26 10:26:31;;;;;;;8.82;1.77;;;9.30;99.90;;;;;;5094072;28;20539;-82
2023/03/26 10:29:15;;;;;;;6.85;2.17;;;9.30;99.90;;;;;;5077012;28;20361;-84
2023/03/26 10:32:04;;;;;;;9.52;2.15;;;9.30;99.90;;;;;;5075985;28;20040;-84
2023/03/26 10:34:35;;;;;;;6.20;1.55;;;9.40;99.90;;;;;;5060260;28;20096;-84
2023/03/26 10:37:09;;;;;;;6.05;1.70;;;9.40;99.90;;;;;;5059654;28;20070;-83
2023/03/26 10:39:47;;;;;;;10.30;1.90;;;9.50;99.90;;;;;;5076162;28;20389;-83
2023/03/26 10:42:48;;;;;;;4.90;2.28;;;9.60;99.90;;;;;;5076165;28;20101;-83
2023/03/26 10:45:44;;;;;;;8.93;2.10;;;9.70;99.90;;;;;;5093887;28;20048;-83
2023/03/26 10:48:18;;;;;;;7.10;1.63;;;9.80;99.90;;;;;;5093733;28;20051;-82
2023/03/26 10:51:12;;;;;;;7.75;1.52;;;9.80;99.90;;;;;;5075933;28;20052;-86
2023/03/26 10:53:52;;;;;;;12.68;1.85;;;9.80;99.90;;;;;;5075853;28;20493;-81
2023/03/26 10:56:40;;;;;;;5.75;1.52;;;9.80;99.90;;;;;;5076228;28;20075;-83
2023/03/26 10:59:12;;;;;;;6.97;1.60;;;9.80;99.90;;;;;;5075675;28;20047;-81
2023/03/26 11:02:16;;;;;;;6.45;1.73;;;9.80;99.90;;;;;;5093602;28;20044;-80
2023/03/26 11:05:07;;;;;;;7.72;1.60;;;9.80;99.90;;;;;;5075719;28;20048;-80
2023/03/26 11:07:45;;;;;;;3.38;1.50;;;9.80;99.90;;;;;;5075959;28;20052;-80
2023/03/26 11:10:35;;;;;;;3.72;1.45;;;9.80;99.90;;;;;;5059033;28;20090;-82
2023/03/26 11:13:42;;;;;;;4.95;1.40;;;9.80;99.90;;;;;;5075536;28;20144;-81
2023/03/26 11:16:37;;;;;;;5.35;1.33;;;9.80;99.90;;;;;;5076536;28;20064;-82
2023/03/26 11:19:21;;;;;;;6.10;2.05;;;9.70;99.90;;;;;;5053988;28;20403;-83
2023/03/26 11:22:02;;;;;;;6.03;1.67;;;9.80;99.90;;;;;;5076446;28;20112;-83
2023/03/26 11:24:44;;;;;;;7.38;1.70;;;9.70;99.90;;;;;;5093653;28;20040;-82
2023/03/26 11:27:20;;;;;;;3.50;1.40;;;9.70;99.90;;;;;;5075576;28;20462;-83
2023/03/26 11:29:55;;;;;;;7.22;1.65;;;9.60;99.90;;;;;;5076335;28;20048;-83
2023/03/26 11:32:34;;;;;;;10.60;2.03;;;9.60;99.90;;;;;;5075791;28;20051;-82
2023/03/26 11:35:18;;;;;;;8.35;2.88;;;9.60;99.90;;;;;;5075494;28;20503;-84
2023/03/26 11:37:50;;;;;;;6.70;1.83;;;9.60;99.90;;;;;;5076247;28;20366;-83
2023/03/26 11:40:23;;;;;;;9.93;2.25;;;9.50;99.90;;;;;;5075521;28;20044;-82
2023/03/26 11:42:57;;;;;;;6.55;1.75;;;9.60;99.90;;;;;;5058342;28;20052;-81
2023/03/26 11:45:26;;;;;;;6.28;2.40;;;9.60;99.90;;;;;;5075232;28;20109;-81
2023/03/26 11:48:09;;;;;;;8.35;1.70;;;9.60;99.90;;;;;;5076327;28;20123;-82
2023/03/26 11:50:51;;;;;;;5.90;1.80;;;9.60;99.90;;;;;;5097314;28;20040;-81
2023/03/26 11:53:20;;;;;;;5.82;1.70;;;9.60;99.90;;;;;;5097824;28;20074;-82
2023/03/26 11:55:56;;;;;;;5.10;1.70;;;9.70;99.90;;;;;;5097018;28;20086;-82
2023/03/26 11:58:48;;;;;;;7.45;1.70;;;9.60;99.90;;;;;;5062662;28;20081;-81
2023/03/26 12:01:28;;;;;;;6.85;2.15;;;9.60;99.90;;;;;;5079844;28;20050;-83
2023/03/26 12:04:17;;;;;;;10.48;3.75;;;9.50;99.90;;;;;;5062574;28;20048;-83
2023/03/26 12:07:03;;;;;;;7.30;2.28;;;9.50;99.90;;;;;;5080265;28;20377;-82
2023/03/26 12:09:29;;;;;;;5.53;1.80;;;9.60;99.90;;;;;;5081158;28;20100;-82
2023/03/26 12:12:01;;;;;;;6.03;1.60;;;9.60;99.90;;;;;;5096904;28;20481;-81
2023/03/26 12:14:31;;;;;;;7.93;2.08;;;9.60;99.90;;;;;;5062400;28;20105;-81
2023/03/26 12:17:04;;;;;;;6.53;1.55;;;9.60;99.90;;;;;;5097747;28;20143;-84
2023/03/26 12:19:44;;;;;;;7.78;2.00;;;9.60;99.90;;;;;;5097502;28;20048;-83
2023/03/26 12:22:45;;;;;;;6.80;1.73;;;9.60;99.90;;;;;;5079768;28;20059;-83
2023/03/26 12:25:19;;;;;;;6.25;1.80;;;9.60;99.90;;;;;;4994710;28;20082;-83
2023/03/26 12:27:51;;;;;;;5.13;1.40;;;9.60;99.90;;;;;;5064039;28;20496;-81
2023/03/26 12:30:35;;;;;;;8.80;1.90;;;9.60;99.90;;;;;;5096384;28;20048;-82
2023/03/26 12:33:20;;;;;;;6.78;1.63;;;9.70;99.90;;;;;;5078744;28;20048;-83
2023/03/26 12:35:48;;;;;;;7.53;1.92;;;9.60;99.90;;;;;;5078385;28;20047;-81
2023/03/26 12:38:31;;;;;;;4.93;1.48;;;9.70;99.90;;;;;;5062494;28;20094;-82
2023/03/26 12:41:10;;;;;;;4.95;1.50;;;9.60;99.90;;;;;;5078542;28;20062;-81
2023/03/26 12:43:50;;;;;;;6.97;1.48;;;9.60;99.90;;;;;;5078220;28;20063;-82
2023/03/26 12:46:28;;;;;;;3.67;1.70;;;9.70;99.90;;;;;;5078920;28;20044;-81
2023/03/26 12:48:56;;;;;;;7.18;1.60;;;9.70;99.90;;;;;;5077887;28;20048;-81
2023/03/26 12:51:39;;;;;;;7.53;2.20;;;9.70;99.90;;;;;;5078033;28;20044;-81
2023/03/26 12:54:14;;;;;;;5.97;2.20;;;9.80;99.90;;;;;;5078180;28;20048;-81
2023/03/26 12:57:15;;;;;;;4.57;1.50;;;9.70;99.90;;;;;;5061305;28;20048;-81
2023/03/26 12:59:51;;;;;;;8.48;2.33;;;9.70;99.90;;;;;;5077936;28;20059;-80
2023/03/26 13:02:49;;;;;;;8.63;2.05;;;9.70;99.90;;;;;;5077961;28;20392;-82
2023/03/26 13:05:29;;;;;;;7.22;1.63;;;9.60;99.90;;;;;;5078141;28;20075;-84
2023/03/26 13:08:16;;;;;;;6.22;1.55;;;9.60;99.90;;;;;;5077446;28;20079;-84
2023/03/26 13:11:08;;;;;;;4.72;1.85;;;9.60;99.90;;;;;;5060735;28;20052;-84
2023/03/26 13:13:39;;;;;;;6.60;2.08;;;9.60;99.90;;;;;;5049811;28;20044;-83
2023/03/26 13:17:01;;;;;;;5.30;1.58;;;9.60;99.90;;;;;;5077315;28;20126;-83
2023/03/26 13:19:59;;;;;;;6.00;1.48;;;9.60;99.90;;;;;;4961481;28;20105;-85
2023/03/26 13:22:49;;;;;;;4.47;1.40;;;9.70;99.90;;;;;;5033406;28;20075;-84
2023/03/26 13:25:35;;;;;;;6.30;1.60;;;9.60;99.90;;;;;;5060896;28;20070;-82
2023/03/26 13:28:25;;;;;;;7.23;2.07;;;9.60;99.90;;;;;;5077384;28;20526;-80
2023/03/26 13:31:25;;;;;;;4.90;1.75;;;9.40;99.90;;;;;;5077705;28;20290;-80
2023/03/26 13:34:17;;;;;;;5.60;2.05;;;9.40;99.90;;;;;;5039212;28;20056;-81